createdAt,value
2018-11-06T00:05:00.000Z,98835
2018-11-06T00:10:00.000Z,98843
2018-11-06T00:15:00.000Z,98833
2018-11-06T00:20:00.000Z,98828
2018-11-06T00:25:00.000Z,98823
2018-11-06T00:30:00.000Z,98805
2018-11-06T00:35:00.000Z,98806
2018-11-06T00:40:00.000Z,98788
2018-11-06T00:45:00.000Z,98793
2018-11-06T00:50:00.000Z,98782
2018-11-06T00:55:00.000Z,98786
2018-11-06T01:00:00.000Z,98784
2018-11-06T01:05:00.000Z,98781
2018-11-06T01:10:00.000Z,98775
2018-11-06T01:15:00.000Z,98764
2018-11-06T01:20:00.000Z,98760
2018-11-06T01:25:00.000Z,98772
2018-11-06T01:30:00.000Z,98743
2018-11-06T01:35:00.000Z,98753
2018-11-06T01:40:00.000Z,98742
2018-11-06T01:45:00.000Z,98749
2018-11-06T01:50:00.000Z,98734
2018-11-06T01:55:00.000Z,98755
2018-11-06T02:00:00.000Z,98749
2018-11-06T02:05:00.000Z,98763
2018-11-06T02:10:00.000Z,98745
2018-11-06T02:15:00.000Z,98738
2018-11-06T02:20:00.000Z,98731
2018-11-06T02:25:00.000Z,98734
2018-11-06T02:30:00.000Z,98716
2018-11-06T02:35:00.000Z,98721
2018-11-06T02:40:00.000Z,98705
2018-11-06T02:45:00.000Z,98695
2018-11-06T02:50:00.000Z,98707
2018-11-06T02:55:00.000Z,98692
2018-11-06T03:00:00.000Z,98674
2018-11-06T03:05:00.000Z,98667
2018-11-06T03:10:00.000Z,98661
2018-11-06T03:15:00.000Z,98655
2018-11-06T03:20:00.000Z,98658
2018-11-06T03:25:00.000Z,98672
2018-11-06T03:30:00.000Z,98701
2018-11-06T03:35:00.000Z,98696
2018-11-06T03:40:00.000Z,98705
2018-11-06T03:45:00.000Z,98714
2018-11-06T03:50:00.000Z,98738
2018-11-06T03:55:00.000Z,98742
2018-11-06T04:00:00.000Z,98758
2018-11-06T04:05:00.000Z,98735
2018-11-06T04:10:00.000Z,98736
2018-11-06T04:15:00.000Z,98740
2018-11-06T04:20:00.000Z,98725
2018-11-06T04:25:00.000Z,98726
2018-11-06T04:30:00.000Z,98748
2018-11-06T04:35:00.000Z,98745
2018-11-06T04:40:00.000Z,98753
2018-11-06T04:45:00.000Z,98769
2018-11-06T04:50:00.000Z,98781
2018-11-06T04:55:00.000Z,98785
2018-11-06T05:00:00.000Z,98790
2018-11-06T05:05:00.000Z,98797
2018-11-06T05:10:00.000Z,98792
2018-11-06T05:15:00.000Z,98794
2018-11-06T05:20:00.000Z,98787
2018-11-06T05:25:00.000Z,98788
2018-11-06T05:30:00.000Z,98802
2018-11-06T05:35:00.000Z,98789
2018-11-06T05:40:00.000Z,98795
2018-11-06T05:45:00.000Z,98801
2018-11-06T05:50:00.000Z,98804
2018-11-06T05:55:00.000Z,98815
2018-11-06T06:01:00.000Z,98820
2018-11-06T06:06:00.000Z,98818
2018-11-06T06:11:00.000Z,98819
2018-11-06T06:16:00.000Z,98822
2018-11-06T06:21:00.000Z,98810
2018-11-06T06:26:00.000Z,98820
2018-11-06T06:31:00.000Z,98832
2018-11-06T06:36:00.000Z,98819
2018-11-06T06:41:00.000Z,98827
2018-11-06T06:46:00.000Z,98830
2018-11-06T06:51:00.000Z,98818
2018-11-06T06:56:00.000Z,98820
2018-11-06T07:01:00.000Z,98819
2018-11-06T07:06:00.000Z,98825
2018-11-06T07:11:00.000Z,98817
2018-11-06T07:16:00.000Z,98816
2018-11-06T07:21:00.000Z,98829
2018-11-06T07:26:00.000Z,98826
2018-11-06T07:31:00.000Z,98829
2018-11-06T07:36:00.000Z,98832
2018-11-06T07:41:00.000Z,98833
2018-11-06T07:46:00.000Z,98826
2018-11-06T07:51:00.000Z,98830
2018-11-06T07:56:00.000Z,98817
2018-11-06T08:01:00.000Z,98814
2018-11-06T08:06:00.000Z,98821
2018-11-06T08:11:00.000Z,98821
2018-11-06T08:16:00.000Z,98829
2018-11-06T08:21:00.000Z,98834
2018-11-06T08:26:00.000Z,98839
2018-11-06T08:31:00.000Z,98839
2018-11-06T08:36:00.000Z,98840
2018-11-06T08:41:00.000Z,98846
2018-11-06T08:46:00.000Z,98836
2018-11-06T08:51:00.000Z,98840
2018-11-06T08:56:00.000Z,98844
2018-11-06T09:01:00.000Z,98837
2018-11-06T09:06:00.000Z,98849
2018-11-06T09:11:00.000Z,98841
2018-11-06T09:16:00.000Z,98842
2018-11-06T09:21:00.000Z,98844
2018-11-06T09:26:00.000Z,98841
2018-11-06T09:31:00.000Z,98850
2018-11-06T09:36:00.000Z,98844
2018-11-06T09:41:00.000Z,98833
2018-11-06T09:46:00.000Z,98828
2018-11-06T09:51:00.000Z,98822
2018-11-06T09:56:00.000Z,98806
2018-11-06T10:01:00.000Z,98804
2018-11-06T10:06:00.000Z,98798
2018-11-06T10:11:00.000Z,98799
2018-11-06T10:16:00.000Z,98783
2018-11-06T10:21:00.000Z,98766
2018-11-06T10:26:00.000Z,98759
2018-11-06T10:31:00.000Z,98752
2018-11-06T10:36:00.000Z,98743
2018-11-06T10:41:00.000Z,98748
2018-11-06T10:46:00.000Z,98738
2018-11-06T10:51:00.000Z,98745
2018-11-06T10:56:00.000Z,98727
2018-11-06T11:01:00.000Z,98737
2018-11-06T11:06:00.000Z,98725
2018-11-06T11:11:00.000Z,98733
2018-11-06T11:16:00.000Z,98726
2018-11-06T11:21:00.000Z,98722
2018-11-06T11:26:00.000Z,98709
2018-11-06T11:31:00.000Z,98712
2018-11-06T11:37:00.000Z,98716
2018-11-06T11:42:00.000Z,98708
2018-11-06T11:47:00.000Z,98710
2018-11-06T11:52:00.000Z,98696
2018-11-06T11:57:00.000Z,98693
2018-11-06T12:02:00.000Z,98697
2018-11-06T12:07:00.000Z,98701
2018-11-06T12:12:00.000Z,98704
2018-11-06T12:17:00.000Z,98694
2018-11-06T12:22:00.000Z,98699
2018-11-06T12:27:00.000Z,98688
2018-11-06T12:32:00.000Z,98679
2018-11-06T12:37:00.000Z,98693
2018-11-06T12:42:00.000Z,98685
2018-11-06T12:47:00.000Z,98672
2018-11-06T12:52:00.000Z,98673
2018-11-06T12:57:00.000Z,98676
2018-11-06T13:02:00.000Z,98673
2018-11-06T13:07:00.000Z,98661
2018-11-06T13:12:00.000Z,98668
2018-11-06T13:17:00.000Z,98659
2018-11-06T13:22:00.000Z,98659
2018-11-06T13:27:00.000Z,98661
2018-11-06T13:32:00.000Z,98656
2018-11-06T13:37:00.000Z,98671
2018-11-06T13:42:00.000Z,98656
2018-11-06T13:47:00.000Z,98664
2018-11-06T13:52:00.000Z,98663
2018-11-06T13:57:00.000Z,98672
2018-11-06T14:02:00.000Z,98656
2018-11-06T14:07:00.000Z,98651
2018-11-06T14:12:00.000Z,98645
2018-11-06T14:17:00.000Z,98658
2018-11-06T14:22:00.000Z,98647
2018-11-06T14:27:00.000Z,98643
2018-11-06T14:32:00.000Z,98642
2018-11-06T14:37:00.000Z,98642
2018-11-06T14:42:00.000Z,98658
2018-11-06T14:47:00.000Z,98656
2018-11-06T14:52:00.000Z,98646
2018-11-06T14:57:00.000Z,98645
2018-11-06T15:02:00.000Z,98646
2018-11-06T15:07:00.000Z,98638
2018-11-06T15:12:00.000Z,98632
2018-11-06T15:17:00.000Z,98626
2018-11-06T15:22:00.000Z,98616
2018-11-06T15:27:00.000Z,98620
2018-11-06T15:32:00.000Z,98618
2018-11-06T15:37:00.000Z,98626
2018-11-06T15:42:00.000Z,98617
2018-11-06T15:47:00.000Z,98634
2018-11-06T15:52:00.000Z,98635
2018-11-06T15:57:00.000Z,98628
2018-11-06T16:02:00.000Z,98638
2018-11-06T16:07:00.000Z,98632
2018-11-06T16:12:00.000Z,98628
2018-11-06T16:17:00.000Z,98634
2018-11-06T16:22:00.000Z,98633
2018-11-06T16:27:00.000Z,98634
2018-11-06T16:32:00.000Z,98633
2018-11-06T16:37:00.000Z,98629
2018-11-06T16:43:00.000Z,98642
2018-11-06T16:48:00.000Z,98646
2018-11-06T16:53:00.000Z,98645
2018-11-06T16:58:00.000Z,98637
2018-11-06T17:03:00.000Z,98639
2018-11-06T17:08:00.000Z,98637
2018-11-06T17:13:00.000Z,98633
2018-11-06T17:18:00.000Z,98645
2018-11-06T17:23:00.000Z,98644
2018-11-06T17:28:00.000Z,98630
2018-11-06T17:33:00.000Z,98615
2018-11-06T17:38:00.000Z,98616
2018-11-06T17:43:00.000Z,98622
2018-11-06T17:48:00.000Z,98616
2018-11-06T17:53:00.000Z,98614
2018-11-06T17:58:00.000Z,98615
2018-11-06T18:03:00.000Z,98618
2018-11-06T18:08:00.000Z,98610
2018-11-06T18:13:00.000Z,98621
2018-11-06T18:18:00.000Z,98621
2018-11-06T18:23:00.000Z,98629
2018-11-06T18:28:00.000Z,98634
2018-11-06T18:33:00.000Z,98634
2018-11-06T18:38:00.000Z,98624
2018-11-06T18:43:00.000Z,98640
2018-11-06T18:48:00.000Z,98630
2018-11-06T18:53:00.000Z,98644
2018-11-06T18:58:00.000Z,98642
2018-11-06T19:03:00.000Z,98636
2018-11-06T19:08:00.000Z,98654
2018-11-06T19:13:00.000Z,98643
2018-11-06T19:18:00.000Z,98638
2018-11-06T19:23:00.000Z,98635
2018-11-06T19:28:00.000Z,98624
2018-11-06T19:33:00.000Z,98628
2018-11-06T19:38:00.000Z,98645
2018-11-06T19:43:00.000Z,98649
2018-11-06T19:48:00.000Z,98660
2018-11-06T19:53:00.000Z,98667
2018-11-06T19:58:00.000Z,98653
2018-11-06T20:03:00.000Z,98671
2018-11-06T20:08:00.000Z,98666
2018-11-06T20:13:00.000Z,98666
2018-11-06T20:18:00.000Z,98663
2018-11-06T20:23:00.000Z,98656
2018-11-06T20:28:00.000Z,98661
2018-11-06T20:33:00.000Z,98664
2018-11-06T20:38:00.000Z,98663
2018-11-06T20:43:00.000Z,98663
2018-11-06T20:48:00.000Z,98660
2018-11-06T20:53:00.000Z,98667
2018-11-06T20:58:00.000Z,98662
2018-11-06T21:03:00.000Z,98663
2018-11-06T21:08:00.000Z,98671
2018-11-06T21:13:00.000Z,98670
2018-11-06T21:18:00.000Z,98663
2018-11-06T21:23:00.000Z,98667
2018-11-06T21:28:00.000Z,98674
2018-11-06T21:34:00.000Z,98674
2018-11-06T21:39:00.000Z,98669
2018-11-06T21:44:00.000Z,98671
2018-11-06T21:49:00.000Z,98665
2018-11-06T21:54:00.000Z,98642
2018-11-06T21:59:00.000Z,98648
2018-11-06T22:04:00.000Z,98648
2018-11-06T22:09:00.000Z,98646
2018-11-06T22:14:00.000Z,98638
2018-11-06T22:19:00.000Z,98652
2018-11-06T22:24:00.000Z,98646
2018-11-06T22:29:00.000Z,98644
2018-11-06T22:34:00.000Z,98653
2018-11-06T22:39:00.000Z,98653
2018-11-06T22:44:00.000Z,98651
2018-11-06T22:49:00.000Z,98654
2018-11-06T22:54:00.000Z,98659
2018-11-06T22:59:00.000Z,98662
2018-11-06T23:04:00.000Z,98658
2018-11-06T23:09:00.000Z,98660
2018-11-06T23:14:00.000Z,98658
2018-11-06T23:19:00.000Z,98655
2018-11-06T23:24:00.000Z,98646
2018-11-06T23:29:00.000Z,98650
2018-11-06T23:34:00.000Z,98651
2018-11-06T23:39:00.000Z,98667
2018-11-06T23:44:00.000Z,98654
2018-11-06T23:49:00.000Z,98652
2018-11-06T23:54:00.000Z,98656
2018-11-06T23:59:00.000Z,98662
